Time;durP1;ratioP1;P1;durP2;ratioP2;P2;SDS_P1;SDS_P2;PMS_P1;PMS_P2;Temp;Humidity;BMP_temperature;BMP_pressure;BME280_temperature;BME280_humidity;BME280_pressure;Samples;Min_cycle;Max_cycle;Signal;HPM_P1;HPM_P2
2022/04/25 00:00:38;;;;;;;1.63;1.50;;;14.00;74.40;14.30;95269.00;;;;5041351;28;20560;-84
2022/04/25 00:03:06;;;;;;;1.80;1.70;;;14.00;74.40;14.30;95273.00;;;;5041845;28;20296;-84
2022/04/25 00:05:33;;;;;;;1.60;1.50;;;14.00;74.60;14.30;95269.00;;;;5038187;28;20752;-84
2022/04/25 00:08:01;;;;;;;1.50;1.40;;;14.00;74.60;14.30;95273.00;;;;5041128;28;20220;-84
2022/04/25 00:10:29;;;;;;;1.90;1.80;;;14.00;74.50;14.30;95277.00;;;;5047422;28;20677;-84
2022/04/25 00:12:56;;;;;;;2.13;1.53;;;14.00;74.60;14.30;95275.00;;;;5054525;28;20729;-84
2022/04/25 00:15:27;;;;;;;1.40;1.30;;;14.00;74.70;14.30;95277.00;;;;5042171;28;20312;-84
2022/04/25 00:17:54;;;;;;;1.60;1.50;;;14.00;75.50;14.30;95275.00;;;;5047731;28;20203;-83
2022/04/25 00:20:22;;;;;;;1.70;1.60;;;14.10;74.90;14.30;95278.00;;;;5052763;28;20233;-84
2022/04/25 00:22:52;;;;;;;1.90;1.80;;;14.10;75.10;14.30;95282.00;;;;5054473;28;20232;-84
2022/04/25 00:25:20;;;;;;;2.10;1.83;;;14.00;74.90;14.30;95272.00;;;;5051795;28;20701;-84
2022/04/25 00:27:47;;;;;;;2.03;1.93;;;14.00;75.00;14.30;95276.00;;;;5044892;28;20216;-84
2022/04/25 00:30:14;;;;;;;2.03;1.93;;;14.00;74.50;14.30;95271.00;;;;5047507;28;20287;-84
2022/04/25 00:32:42;;;;;;;2.53;2.33;;;14.10;74.80;14.30;95271.00;;;;5052693;28;20256;-84
2022/04/25 00:35:11;;;;;;;2.37;2.27;;;14.10;74.70;14.30;95270.00;;;;5038807;28;20685;-84
2022/04/25 00:37:40;;;;;;;2.60;2.40;;;14.00;74.30;14.30;95265.00;;;;5031486;28;20259;-83
2022/04/25 00:40:09;;;;;;;2.87;2.50;;;14.10;74.10;14.30;95268.00;;;;5047602;28;20202;-83
2022/04/25 00:42:37;;;;;;;2.47;2.27;;;14.10;74.40;14.30;95269.00;;;;5052605;28;20197;-83
2022/04/25 00:45:05;;;;;;;2.47;2.27;;;14.10;74.20;14.30;95265.00;;;;5038959;28;20267;-84
2022/04/25 00:47:33;;;;;;;2.20;2.10;;;14.10;74.20;14.40;95273.00;;;;5053160;28;20287;-84
2022/04/25 00:50:00;;;;;;;2.20;2.00;;;14.10;74.30;14.30;95278.00;;;;5052845;28;20197;-83
2022/04/25 00:52:27;;;;;;;2.03;1.87;;;14.10;74.00;14.40;95268.00;;;;5044370;28;20229;-83
2022/04/25 00:54:57;;;;;;;1.70;1.60;;;14.00;74.00;14.30;95270.00;;;;5033120;28;20284;-83
2022/04/25 00:57:25;;;;;;;1.73;1.63;;;14.10;74.10;14.30;95269.00;;;;5045991;28;20307;-83
2022/04/25 00:59:53;;;;;;;1.40;1.30;;;14.00;73.80;14.30;95270.00;;;;5045083;28;20216;-83
2022/04/25 01:02:24;;;;;;;1.50;1.40;;;14.10;74.20;14.30;95267.00;;;;5052805;28;20201;-83
2022/04/25 01:04:52;;;;;;;1.80;1.70;;;14.10;74.30;14.30;95268.00;;;;5049952;28;21037;-83
2022/04/25 01:07:20;;;;;;;1.50;1.40;;;14.00;74.20;14.40;95271.00;;;;5036312;28;20224;-83
2022/04/25 01:09:47;;;;;;;1.87;1.73;;;14.10;74.50;14.40;95274.00;;;;5042428;28;20284;-83
2022/04/25 01:12:15;;;;;;;1.70;1.60;;;14.10;74.30;14.40;95273.00;;;;5052188;28;20985;-84
2022/04/25 01:14:43;;;;;;;1.30;1.20;;;14.10;74.70;14.40;95274.00;;;;5052906;28;20288;-84
2022/04/25 01:17:10;;;;;;;1.60;1.50;;;14.10;74.60;14.40;95274.00;;;;5051551;28;20247;-84
2022/04/25 01:19:37;;;;;;;1.90;1.70;;;14.10;74.80;14.40;95276.00;;;;5033526;28;20666;-84
2022/04/25 01:22:11;;;;;;;1.63;1.53;;;14.10;74.50;14.40;95273.00;;;;5038318;28;20201;-84
2022/04/25 01:27:25;;;;;;;1.87;1.77;;;14.10;74.50;14.40;95277.00;;;;5046524;28;20246;-84
2022/04/25 01:29:54;;;;;;;1.33;1.30;;;14.10;74.60;14.40;95280.00;;;;5042513;28;20276;-84
2022/04/25 01:32:24;;;;;;;1.60;1.50;;;14.10;74.60;14.40;95280.00;;;;5047675;28;20290;-84
2022/04/25 01:34:52;;;;;;;1.67;1.57;;;14.20;74.40;14.40;95275.00;;;;5044312;28;20279;-84
2022/04/25 01:37:21;;;;;;;1.53;1.43;;;14.20;74.60;14.40;95282.00;;;;5051155;28;20220;-83
2022/04/25 01:39:51;;;;;;;1.00;1.00;;;14.10;74.40;14.40;95292.00;;;;5038689;28;20200;-84
2022/04/25 01:42:20;;;;;;;1.27;1.17;;;14.20;74.70;14.50;95282.00;;;;5050916;28;20232;-83
2022/04/25 01:44:47;;;;;;;1.50;1.40;;;14.20;74.70;14.50;95287.00;;;;5042468;28;20275;-84
2022/04/25 01:47:14;;;;;;;1.47;1.37;;;14.20;74.50;14.50;95284.00;;;;5050859;28;20224;-84
2022/04/25 01:49:42;;;;;;;1.53;1.43;;;14.20;75.20;14.50;95282.00;;;;5052288;28;20200;-83
2022/04/25 01:52:18;;;;;;;1.67;1.57;;;14.20;74.30;14.50;95279.00;;;;5051498;28;20196;-83
2022/04/25 01:54:47;;;;;;;1.50;1.37;;;14.20;74.60;14.50;95285.00;;;;5042518;28;20235;-84
2022/04/25 01:57:15;;;;;;;1.17;1.17;;;14.20;75.10;14.40;95283.00;;;;5034803;28;20315;-84
2022/04/25 01:59:43;;;;;;;1.47;1.37;;;14.20;74.20;14.50;95290.00;;;;5031594;28;20717;-84
2022/04/25 02:02:11;;;;;;;1.43;1.33;;;14.20;74.30;14.50;95286.00;;;;5045336;28;20276;-84
2022/04/25 02:04:39;;;;;;;1.63;1.53;;;14.20;74.50;14.50;95282.00;;;;5051874;28;20204;-84
2022/04/25 02:07:07;;;;;;;1.40;1.40;;;14.20;74.40;14.50;95281.00;;;;5051881;28;20216;-83
2022/04/25 02:09:35;;;;;;;1.73;1.63;;;14.20;74.30;14.50;95285.00;;;;5034859;28;20233;-83
2022/04/25 02:12:03;;;;;;;1.90;1.80;;;14.20;74.50;14.50;95281.00;;;;5051833;28;20291;-83
2022/04/25 02:14:32;;;;;;;1.60;1.50;;;14.20;74.40;14.50;95287.00;;;;5047261;28;20692;-84
2022/04/25 02:17:00;;;;;;;1.83;1.73;;;14.20;74.60;14.50;95292.00;;;;5046390;28;20273;-84
2022/04/25 02:19:28;;;;;;;1.37;1.27;;;14.20;74.70;14.50;95284.00;;;;5052390;28;20223;-83
2022/04/25 02:21:56;;;;;;;1.60;1.50;;;14.20;74.60;14.60;95287.00;;;;5051407;28;20256;-84
2022/04/25 02:24:24;;;;;;;1.50;1.40;;;14.20;74.60;14.60;95288.00;;;;5052572;28;20343;-84
2022/04/25 02:26:52;;;;;;;2.40;2.20;;;14.30;74.70;14.60;95284.00;;;;5031483;28;20259;-84
2022/04/25 02:29:20;;;;;;;2.33;2.13;;;14.20;74.70;14.60;95287.00;;;;5048987;28;20549;-84
2022/04/25 02:31:49;;;;;;;2.40;2.20;;;14.30;74.80;14.60;95290.00;;;;5041494;28;20236;-84
2022/04/25 02:34:16;;;;;;;2.03;1.93;;;14.30;75.00;14.50;95284.00;;;;5044883;28;20228;-84
2022/04/25 02:36:43;;;;;;;1.73;1.63;;;14.20;74.80;14.50;95295.00;;;;5047466;28;20315;-84
2022/04/25 02:39:10;;;;;;;2.20;2.10;;;14.20;74.80;14.60;95299.00;;;;5036178;28;20244;-84
2022/04/25 02:41:37;;;;;;;1.97;1.87;;;14.20;74.90;14.50;95307.00;;;;5048956;28;20280;-83
2022/04/25 02:44:05;;;;;;;2.00;1.90;;;14.30;75.00;14.50;95302.00;;;;5039085;28;20304;-83
2022/04/25 02:46:32;;;;;;;2.30;2.10;;;14.20;74.90;14.50;95306.00;;;;5047013;28;20307;-83
2022/04/25 02:49:00;;;;;;;2.30;2.20;;;14.20;74.70;14.60;95301.00;;;;5051554;28;20192;-83
2022/04/25 02:51:28;;;;;;;2.03;1.93;;;14.30;75.00;14.60;95308.00;;;;5045364;28;20272;-83
2022/04/25 02:53:55;;;;;;;2.77;2.57;;;14.30;74.70;14.60;95305.00;;;;5040074;28;20228;-84
2022/04/25 02:56:22;;;;;;;2.00;1.90;;;14.20;74.60;14.50;95308.00;;;;5043552;28;20228;-83
2022/04/25 02:58:49;;;;;;;2.53;2.33;;;14.20;74.80;14.50;95309.00;;;;5040840;28;20197;-83
2022/04/25 03:01:16;;;;;;;1.90;1.80;;;14.20;74.60;14.50;95312.00;;;;5044979;28;20201;-83
2022/04/25 03:03:43;;;;;;;2.10;2.00;;;14.20;74.70;14.50;95308.00;;;;5038255;28;20627;-83
2022/04/25 03:06:12;;;;;;;2.30;2.10;;;14.20;75.00;14.50;95308.00;;;;5048025;28;20408;-83
2022/04/25 03:08:40;;;;;;;2.50;2.30;;;14.20;75.00;14.50;95319.00;;;;5036122;28;20297;-83
2022/04/25 03:11:10;;;;;;;2.47;2.27;;;14.20;75.00;14.50;95316.00;;;;5031692;28;20292;-83
2022/04/25 03:13:38;;;;;;;2.00;1.90;;;14.30;74.90;14.50;95314.00;;;;5049012;28;20207;-83
2022/04/25 03:16:07;;;;;;;2.10;2.00;;;14.20;74.70;14.50;95313.00;;;;5045040;28;20235;-84
2022/04/25 03:18:34;;;;;;;1.90;1.80;;;14.20;74.80;14.60;95314.00;;;;5042279;28;20209;-83
2022/04/25 03:21:02;;;;;;;2.27;2.17;;;14.20;74.70;14.60;95316.00;;;;5040171;28;20239;-84
2022/04/25 03:23:31;;;;;;;1.90;1.80;;;14.30;74.90;14.60;95320.00;;;;5051272;28;20284;-83
2022/04/25 03:25:58;;;;;;;2.40;2.20;;;14.30;74.80;14.60;95321.00;;;;5046707;28;20212;-84
2022/04/25 03:28:25;;;;;;;2.23;2.10;;;14.30;74.50;14.60;95317.00;;;;5042105;28;20197;-84
2022/04/25 03:30:55;;;;;;;2.37;2.27;;;14.30;74.70;14.60;95320.00;;;;5043521;28;20225;-84
2022/04/25 03:33:31;;;;;;;2.40;2.30;;;14.30;74.90;14.60;95317.00;;;;5034051;28;20240;-83
2022/04/25 03:36:00;;;;;;;2.43;2.23;;;14.20;74.70;14.50;95325.00;;;;5039561;28;20227;-83
2022/04/25 03:38:28;;;;;;;2.87;2.67;;;14.20;75.00;14.50;95326.00;;;;5055686;28;20198;-83
2022/04/25 03:40:57;;;;;;;3.43;3.03;;;14.10;75.00;14.50;95326.00;;;;5048860;28;20561;-83
2022/04/25 03:43:26;;;;;;;3.43;2.83;;;14.20;76.00;14.50;95327.00;;;;5046357;28;20200;-83
2022/04/25 03:45:53;;;;;;;3.90;2.93;;;14.20;75.20;14.50;95335.00;;;;5045362;28;20296;-84
2022/04/25 03:48:21;;;;;;;3.70;3.40;;;14.20;75.20;14.50;95345.00;;;;5056048;28;20189;-84
2022/04/25 03:50:48;;;;;;;4.00;3.57;;;14.20;75.50;14.50;95339.00;;;;5056298;28;20196;-84
2022/04/25 03:53:19;;;;;;;4.40;4.00;;;14.20;75.80;14.50;95350.00;;;;5054783;28;20279;-85
2022/04/25 03:58:38;;;;;;;3.40;3.20;;;14.20;75.90;14.40;95357.00;;;;4981884;28;20203;-84
2022/04/25 04:01:05;;;;;;;3.90;3.60;;;14.10;75.90;14.40;95362.00;;;;5035250;28;20193;-84
2022/04/25 04:03:35;;;;;;;3.40;3.10;;;14.10;75.80;14.30;95366.00;;;;5035102;28;20221;-84
2022/04/25 04:06:03;;;;;;;2.97;2.77;;;14.10;76.10;14.30;95363.00;;;;5053215;28;20295;-84
2022/04/25 04:08:33;;;;;;;2.93;2.73;;;14.10;76.00;14.20;95365.00;;;;5046520;28;20276;-85
2022/04/25 04:11:00;;;;;;;2.80;2.60;;;14.00;75.80;14.20;95365.00;;;;5042785;28;20820;-85
2022/04/25 04:13:28;;;;;;;3.03;2.83;;;13.90;75.80;14.20;95372.00;;;;5055748;28;20200;-85
2022/04/25 04:15:57;;;;;;;2.80;2.60;;;14.00;76.10;14.20;95380.00;;;;5047670;28;20641;-85
2022/04/25 04:18:24;;;;;;;2.50;2.30;;;14.00;76.20;14.10;95383.00;;;;5055256;28;20224;-85
2022/04/25 04:20:52;;;;;;;2.73;2.53;;;13.90;76.20;14.10;95387.00;;;;5053692;28;20215;-84
2022/04/25 04:23:19;;;;;;;2.70;2.50;;;13.80;76.10;14.10;95394.00;;;;5047444;28;20193;-85
2022/04/25 04:25:46;;;;;;;3.00;2.80;;;13.80;76.20;14.10;95385.00;;;;5046514;28;20229;-86
2022/04/25 04:28:13;;;;;;;2.73;2.53;;;13.80;76.10;14.10;95393.00;;;;5039484;28;20205;-85
2022/04/25 04:30:40;;;;;;;3.10;2.90;;;13.70;76.00;14.10;95397.00;;;;5048599;28;20243;-85
2022/04/25 04:33:09;;;;;;;2.90;2.60;;;13.80;76.20;14.00;95401.00;;;;5054784;28;20583;-86
2022/04/25 04:38:20;;;;;;;2.90;2.70;;;13.80;76.60;14.00;95405.00;;;;5052974;28;20211;-86
2022/04/25 04:40:47;;;;;;;3.27;3.07;;;13.70;77.40;13.90;95403.00;;;;5054386;28;20665;-86
2022/04/25 04:43:15;;;;;;;3.20;3.00;;;13.60;76.80;13.90;95411.00;;;;5053068;28;20192;-85
2022/04/25 04:45:44;;;;;;;2.90;2.70;;;13.80;76.90;13.90;95423.00;;;;5053102;28;20632;-85
2022/04/25 04:48:13;;;;;;;3.03;2.80;;;13.60;76.90;13.90;95418.00;;;;5054885;28;20200;-85
2022/04/25 04:50:40;;;;;;;3.07;2.87;;;13.60;77.00;13.90;95421.00;;;;5053208;28;20710;-86
2022/04/25 04:53:08;;;;;;;3.40;3.10;;;13.60;77.00;13.90;95429.00;;;;5055312;28;20271;-86
2022/04/25 04:55:36;;;;;;;3.40;3.20;;;13.60;77.00;13.90;95429.00;;;;5051452;28;20227;-87
2022/04/25 04:58:03;;;;;;;3.07;2.87;;;13.60;77.10;13.90;95428.00;;;;5033165;28;20224;-85
2022/04/25 05:00:30;;;;;;;3.13;2.93;;;13.60;77.10;13.90;95430.00;;;;5041359;28;20609;-86
2022/04/25 05:02:58;;;;;;;3.77;3.47;;;13.60;77.40;13.90;95434.00;;;;5053998;28;20613;-86
2022/04/25 05:05:27;;;;;;;3.03;2.83;;;13.60;77.50;14.00;95438.00;;;;5051435;28;20307;-86
2022/04/25 05:07:54;;;;;;;3.20;3.00;;;13.70;77.50;14.00;95439.00;;;;5033431;28;20236;-86
2022/04/25 05:10:22;;;;;;;3.87;3.57;;;13.70;77.60;14.00;95449.00;;;;5037848;28;20197;-85
2022/04/25 05:12:51;;;;;;;3.23;3.03;;;13.60;77.40;14.00;95448.00;;;;5081667;22;20215;-81
2022/04/25 05:15:19;;;;;;;3.57;3.30;;;13.60;77.20;14.00;95459.00;;;;5075175;28;20216;-81
2022/04/25 05:17:49;;;;;;;3.83;3.53;;;13.70;78.00;14.00;95460.00;;;;5066842;28;20216;-81
2022/04/25 05:20:19;;;;;;;3.90;3.60;;;13.70;77.50;14.10;95454.00;;;;5074602;28;20200;-79
2022/04/25 05:22:48;;;;;;;4.40;4.10;;;13.70;77.30;14.10;95462.00;;;;5084406;28;20189;-79
2022/04/25 05:25:18;;;;;;;3.90;3.60;;;13.70;77.70;14.20;95472.00;;;;5086717;28;20216;-79
2022/04/25 05:27:47;;;;;;;4.50;4.20;;;13.80;78.10;14.30;95472.00;;;;5071413;22;20228;-87
2022/04/25 05:30:15;;;;;;;4.53;4.20;;;13.80;78.10;14.30;95478.00;;;;5051418;28;20200;-87
2022/04/25 05:32:46;;;;;;;5.10;4.70;;;13.80;78.00;14.40;95484.00;;;;5052551;28;20944;-87
2022/04/25 05:35:14;;;;;;;5.27;4.87;;;13.90;77.90;14.50;95491.00;;;;5052080;28;20208;-87
2022/04/25 05:37:45;;;;;;;5.47;4.97;;;13.90;78.10;14.50;95487.00;;;;5037519;28;20287;-88
2022/04/25 05:40:16;;;;;;;5.37;4.93;;;14.00;78.10;14.50;95488.00;;;;5031343;28;20276;-87
2022/04/25 05:42:45;;;;;;;4.87;4.47;;;14.00;78.20;14.60;95488.00;;;;5022784;28;20205;-88
2022/04/25 05:45:15;;;;;;;6.47;5.87;;;14.10;77.80;14.60;95485.00;;;;5026106;28;20949;-88
2022/04/25 05:47:42;;;;;;;5.67;5.17;;;14.10;77.80;14.60;95490.00;;;;5033461;28;20668;-88
2022/04/25 05:52:57;;;;;;;5.80;5.33;;;14.20;77.60;14.70;95507.00;;;;5032631;28;20196;-86
2022/04/25 05:55:28;;;;;;;6.37;5.83;;;14.20;77.60;14.70;95506.00;;;;5028789;28;20224;-88
2022/04/25 05:57:56;;;;;;;7.23;6.53;;;14.20;77.50;14.70;95514.00;;;;5032545;28;20213;-86
2022/04/25 06:00:24;;;;;;;7.10;6.50;;;14.20;77.00;14.80;95516.00;;;;5021168;28;20729;-88
2022/04/25 06:02:52;;;;;;;6.93;6.33;;;14.30;77.20;14.80;95520.00;;;;4999936;28;20205;-87
2022/04/25 06:05:19;;;;;;;6.90;6.30;;;14.30;77.40;14.90;95525.00;;;;5018005;28;21479;-87
2022/04/25 06:07:48;;;;;;;6.70;6.10;;;14.30;77.40;14.90;95525.00;;;;4993897;28;20205;-87
2022/04/25 06:10:19;;;;;;;6.70;6.10;;;14.40;77.40;14.90;95529.00;;;;5012705;28;20249;-87
2022/04/25 06:12:53;;;;;;;6.73;6.13;;;14.40;77.20;15.00;95534.00;;;;5018427;28;20646;-87
2022/04/25 06:15:24;;;;;;;7.17;6.57;;;14.40;77.30;15.00;95544.00;;;;5018786;28;20225;-87
2022/04/25 06:17:52;;;;;;;7.03;6.43;;;14.50;77.30;15.00;95546.00;;;;5019929;28;20248;-87
2022/04/25 06:20:19;;;;;;;7.17;6.53;;;14.50;77.20;15.00;95548.00;;;;5020085;28;20198;-87
2022/04/25 06:22:53;;;;;;;7.30;6.67;;;14.50;77.20;15.00;95551.00;;;;5018557;28;20290;-87
2022/04/25 06:25:21;;;;;;;8.00;7.30;;;14.50;76.90;15.00;95555.00;;;;5017925;28;20335;-86
2022/04/25 06:27:52;;;;;;;8.13;7.43;;;14.50;76.70;15.10;95559.00;;;;5018110;28;20237;-87
2022/04/25 06:30:23;;;;;;;7.63;6.97;;;14.60;76.90;15.10;95554.00;;;;5019847;28;20277;-88
2022/04/25 06:32:53;;;;;;;7.47;6.77;;;14.60;76.80;15.10;95553.00;;;;5018045;28;20282;-86
2022/04/25 06:35:22;;;;;;;8.03;7.33;;;14.60;76.80;15.10;95558.00;;;;5017966;28;20312;-86
2022/04/25 06:37:53;;;;;;;8.07;7.27;;;14.70;76.70;15.10;95566.00;;;;5018591;28;21496;-87
2022/04/25 06:40:23;;;;;;;8.57;7.77;;;14.60;76.40;15.10;95568.00;;;;5018227;28;20237;-87
2022/04/25 06:42:56;;;;;;;8.30;7.50;;;14.70;76.20;15.10;95568.00;;;;5016263;28;20200;-87
2022/04/25 06:45:23;;;;;;;8.23;7.50;;;14.70;76.20;15.10;95573.00;;;;5017583;28;20229;-87
2022/04/25 06:47:50;;;;;;;8.70;7.80;;;14.70;75.90;15.10;95570.00;;;;5018062;28;20206;-87
2022/04/25 06:50:17;;;;;;;8.20;7.40;;;14.70;76.30;15.10;95573.00;;;;5016009;28;20190;-87
2022/04/25 06:52:45;;;;;;;8.90;8.17;;;14.70;76.50;15.20;95579.00;;;;5017236;28;20213;-87
2022/04/25 06:55:12;;;;;;;8.40;7.60;;;14.70;76.40;15.30;95582.00;;;;5015543;28;20663;-88
2022/04/25 06:57:39;;;;;;;10.07;9.07;;;14.80;76.40;15.30;95584.00;;;;5017595;28;20758;-87
2022/04/25 07:00:19;;;;;;;8.03;7.33;;;14.80;76.20;15.40;95584.00;;;;5016743;28;20189;-88
2022/04/25 07:02:51;;;;;;;8.77;7.97;;;14.80;76.20;15.50;95588.00;;;;5018098;28;20570;-86
2022/04/25 07:05:29;;;;;;;9.17;8.30;;;14.90;76.00;15.50;95589.00;;;;5018784;28;21355;-85
2022/04/25 07:08:15;;;;;;;9.57;8.57;;;14.90;75.90;15.60;95590.00;;;;5019333;28;20201;-87
2022/04/25 07:10:42;;;;;;;8.97;8.07;;;15.00;75.80;15.60;95597.00;;;;5018185;28;20288;-83
2022/04/25 07:13:12;;;;;;;8.80;8.00;;;15.00;75.80;15.70;95598.00;;;;5017409;28;20237;-83
2022/04/25 07:15:43;;;;;;;8.90;8.10;;;15.10;75.90;15.70;95594.00;;;;5019810;28;20221;-82
2022/04/25 07:18:15;;;;;;;9.77;8.87;;;15.10;76.00;15.80;95605.00;;;;5017971;28;20218;-84
2022/04/25 07:20:45;;;;;;;9.17;8.37;;;15.20;76.00;15.90;95595.00;;;;5022226;28;20482;-84
2022/04/25 07:28:53;;;;;;;9.27;8.40;;;15.40;75.20;16.00;95600.00;;;;5127878;27;20558;-80
2022/04/25 07:31:21;;;;;;;10.10;9.20;;;15.40;75.30;16.10;95610.00;;;;5075210;28;20188;-80
2022/04/25 07:33:48;;;;;;;9.73;8.83;;;15.50;75.40;16.20;95610.00;;;;5076196;28;20191;-80
2022/04/25 07:36:17;;;;;;;8.97;8.10;;;15.50;75.20;16.30;95614.00;;;;5080978;28;20199;-80
2022/04/25 07:38:45;;;;;;;9.30;8.50;;;15.60;74.90;16.40;95610.00;;;;5082712;28;20188;-80
2022/04/25 07:41:13;;;;;;;9.70;8.80;;;15.70;74.90;16.50;95610.00;;;;5076136;28;20970;-80
2022/04/25 07:43:43;;;;;;;10.10;9.20;;;15.70;74.60;16.60;95620.00;;;;5113751;22;20226;-85
2022/04/25 07:46:17;;;;;;;8.97;8.17;;;15.80;74.60;16.70;95627.00;;;;5094638;28;20236;-83
2022/04/25 07:48:49;;;;;;;9.20;8.40;;;15.90;74.60;16.90;95628.00;;;;5083082;28;20880;-84
2022/04/25 07:51:16;;;;;;;8.57;7.77;;;16.10;74.80;17.00;95630.00;;;;5084736;28;20723;-85
2022/04/25 07:53:43;;;;;;;8.63;7.90;;;16.20;74.50;17.20;95640.00;;;;5082395;28;20630;-82
2022/04/25 07:56:11;;;;;;;8.53;7.83;;;16.30;74.60;17.40;95641.00;;;;5086541;28;20342;-81
2022/04/25 07:58:38;;;;;;;8.03;7.33;;;16.40;73.90;17.50;95645.00;;;;5085565;28;20294;-82
2022/04/25 08:01:08;;;;;;;8.33;7.63;;;16.60;73.10;17.60;95645.00;;;;5085357;28;20628;-82
2022/04/25 08:03:36;;;;;;;8.17;7.47;;;16.70;72.70;17.60;95648.00;;;;5086105;28;20294;-81
2022/04/25 08:06:04;;;;;;;7.40;6.80;;;16.80;72.80;17.80;95652.00;;;;5083192;28;20223;-82
2022/04/25 08:08:32;;;;;;;7.43;6.87;;;16.90;72.20;17.90;95655.00;;;;5078174;28;20219;-82
2022/04/25 08:11:01;;;;;;;6.93;6.40;;;17.00;72.00;17.90;95659.00;;;;5081235;28;20617;-82
2022/04/25 08:18:59;;;;;;;7.10;6.60;;;17.30;71.20;18.20;95661.00;;;;5085253;28;20194;-83
2022/04/25 08:21:27;;;;;;;6.87;6.27;;;17.40;70.10;18.20;95663.00;;;;5083879;28;20238;-84
2022/04/25 08:23:56;;;;;;;6.40;5.90;;;17.40;69.50;18.20;95668.00;;;;5084022;28;20269;-85
2022/04/25 08:26:23;;;;;;;7.13;6.53;;;17.50;69.30;18.30;95669.00;;;;5084084;28;20212;-86
2022/04/25 08:28:51;;;;;;;7.20;6.60;;;17.50;69.00;18.30;95683.00;;;;5083104;28;21515;-84
2022/04/25 08:31:18;;;;;;;6.67;6.17;;;17.60;68.80;18.40;95673.00;;;;5083294;28;20246;-86
2022/04/25 08:33:46;;;;;;;6.60;6.10;;;17.60;68.90;18.40;95674.00;;;;5085832;28;20191;-85
2022/04/25 08:36:16;;;;;;;6.90;6.30;;;17.70;69.00;18.50;95679.00;;;;5083613;28;20276;-85
2022/04/25 08:38:45;;;;;;;6.93;6.37;;;17.70;68.40;18.60;95678.00;;;;5077471;28;20254;-83
2022/04/25 08:41:17;;;;;;;6.97;6.40;;;17.80;67.90;18.60;95670.00;;;;5067528;28;20196;-83
2022/04/25 08:43:55;;;;;;;6.20;5.80;;;17.80;67.60;18.60;95681.00;;;;5072051;28;20299;-83
2022/04/25 08:46:34;;;;;;;6.80;6.30;;;17.90;67.30;18.70;95681.00;;;;5072550;28;20267;-83
2022/04/25 08:49:05;;;;;;;6.80;6.30;;;17.90;67.50;18.80;95685.00;;;;5073442;28;20758;-83
2022/04/25 08:51:58;;;;;;;7.20;6.63;;;18.00;66.90;18.90;95687.00;;;;5074434;28;20257;-83
2022/04/25 08:54:30;;;;;;;6.60;6.17;;;18.00;67.40;18.90;95693.00;;;;5072746;28;20243;-84
2022/04/25 08:56:58;;;;;;;7.03;6.43;;;18.10;66.90;19.00;95696.00;;;;5067994;28;20216;-83
2022/04/25 08:59:27;;;;;;;8.10;7.40;;;18.20;65.80;19.00;95706.00;;;;5066709;28;20227;-83
2022/04/25 09:01:54;;;;;;;6.97;6.37;;;18.20;65.60;18.90;95709.00;;;;5067606;28;20192;-83
2022/04/25 09:04:22;;;;;;;7.37;6.77;;;18.20;65.20;18.80;95717.00;;;;5067830;28;20211;-84
2022/04/25 09:06:51;;;;;;;6.80;6.30;;;18.20;65.20;18.70;95719.00;;;;5068712;28;20691;-83
2022/04/25 09:09:18;;;;;;;6.90;6.40;;;18.10;65.10;18.60;95721.00;;;;5069395;28;20200;-83
2022/04/25 09:14:31;;;;;;;7.00;6.40;;;18.00;64.10;18.40;95723.00;;;;5071912;28;20199;-84
2022/04/25 09:16:59;;;;;;;6.63;6.13;;;17.90;64.70;18.40;95726.00;;;;5070325;28;20272;-84
2022/04/25 09:19:27;;;;;;;6.33;5.83;;;17.90;64.70;18.40;95726.00;;;;5066744;28;20192;-82
2022/04/25 09:21:55;;;;;;;6.47;5.97;;;17.90;65.10;18.50;95727.00;;;;5072981;28;20196;-83
2022/04/25 09:24:25;;;;;;;5.80;5.40;;;17.90;65.00;18.50;95736.00;;;;5072408;28;20196;-82
2022/04/25 09:26:53;;;;;;;5.83;5.43;;;17.90;65.10;18.60;95729.00;;;;5073909;28;20704;-83
2022/04/25 09:29:28;;;;;;;6.20;5.70;;;17.90;65.00;18.60;95737.00;;;;5073387;28;20219;-82
2022/04/25 09:31:55;;;;;;;5.83;5.43;;;17.90;64.10;18.60;95748.00;;;;5072929;28;20562;-83
2022/04/25 09:37:06;;;;;;;5.70;5.30;;;17.90;63.60;18.40;95746.00;;;;5072600;28;20727;-84
2022/04/25 09:39:34;;;;;;;6.17;5.67;;;17.90;63.50;18.30;95733.00;;;;5071079;28;20908;-83
2022/04/25 09:42:02;;;;;;;6.07;5.50;;;17.80;63.40;18.30;95741.00;;;;5070424;28;20291;-83
2022/04/25 09:44:30;;;;;;;6.43;5.93;;;17.80;63.20;18.20;95738.00;;;;5072393;28;20184;-83
2022/04/25 09:46:58;;;;;;;5.83;5.43;;;17.80;63.10;18.20;95736.00;;;;5072636;28;20223;-83
2022/04/25 09:49:25;;;;;;;6.53;5.93;;;17.80;63.40;18.20;95735.00;;;;5073559;28;20223;-83
2022/04/25 09:52:04;;;;;;;6.20;5.73;;;17.80;64.00;18.40;95735.00;;;;5071834;28;20242;-83
2022/04/25 09:54:33;;;;;;;5.97;5.57;;;17.90;65.10;18.70;95748.00;;;;5071698;28;20700;-82
2022/04/25 09:57:00;;;;;;;5.80;5.40;;;18.20;67.10;19.00;95738.00;;;;5071048;28;20219;-83
2022/04/25 09:59:27;;;;;;;5.87;5.47;;;18.60;67.70;19.30;95749.00;;;;5070987;28;20212;-83
2022/04/25 10:02:07;;;;;;;5.47;5.13;;;19.00;66.70;19.50;95749.00;;;;5071199;28;20246;-83
2022/04/25 10:04:37;;;;;;;4.63;4.33;;;19.40;63.80;19.80;95753.00;;;;5068316;28;20584;-83
2022/04/25 10:07:07;;;;;;;4.63;4.33;;;19.80;65.80;20.00;95760.00;;;;5065589;28;20297;-83
2022/04/25 10:09:36;;;;;;;4.80;4.50;;;20.20;63.70;20.20;95751.00;;;;5068312;28;20227;-83
2022/04/25 10:12:06;;;;;;;4.80;4.50;;;20.50;63.80;20.50;95754.00;;;;5072962;28;20618;-83
2022/04/25 10:14:36;;;;;;;4.97;4.60;;;20.90;63.10;20.70;95747.00;;;;5070237;28;20256;-83
2022/04/25 10:17:04;;;;;;;4.53;4.23;;;21.20;61.60;21.00;95759.00;;;;5067327;28;20295;-83
2022/04/25 10:19:32;;;;;;;4.57;4.27;;;21.50;59.80;21.20;95762.00;;;;5069320;28;20239;-83
2022/04/25 10:22:00;;;;;;;3.90;3.60;;;21.80;58.90;21.40;95766.00;;;;5071338;28;20271;-83
2022/04/25 10:24:29;;;;;;;3.87;3.57;;;22.00;57.60;21.50;95766.00;;;;5070377;28;20241;-83
2022/04/25 10:26:58;;;;;;;3.97;3.67;;;22.10;57.10;21.70;95761.00;;;;5069133;28;20240;-84
2022/04/25 10:29:34;;;;;;;3.63;3.43;;;22.20;57.00;21.80;95761.00;;;;5071780;28;20634;-84
2022/04/25 10:32:04;;;;;;;3.77;3.47;;;22.30;55.20;21.90;95768.00;;;;5067090;28;20242;-84
2022/04/25 10:34:51;;;;;;;3.63;3.33;;;22.30;55.80;22.00;95768.00;;;;5069378;28;20581;-84
2022/04/25 10:37:36;;;;;;;3.20;3.00;;;22.30;54.00;22.10;95767.00;;;;5067646;28;20219;-84
2022/04/25 10:40:08;;;;;;;3.27;3.07;;;22.20;53.20;22.00;95768.00;;;;5069291;28;20215;-84
2022/04/25 10:46:03;;;;;;;2.93;2.73;;;22.00;53.20;21.70;95779.00;;;;5070512;28;21588;-84
2022/04/25 10:48:51;;;;;;;2.90;2.70;;;21.80;52.50;21.50;95774.00;;;;5058065;28;20587;-85
2022/04/25 10:51:19;;;;;;;3.10;2.90;;;21.70;54.10;21.30;95782.00;;;;5067529;28;20257;-84
2022/04/25 10:54:05;;;;;;;2.83;2.67;;;21.50;54.10;21.20;95778.00;;;;5064785;28;20222;-84
2022/04/25 10:57:17;;;;;;;3.60;3.33;;;21.30;52.70;21.00;95778.00;;;;5060119;28;20724;-84
2022/04/25 10:59:45;;;;;;;3.13;2.93;;;21.10;53.60;20.90;95776.00;;;;5066032;28;20235;-84
2022/04/25 11:02:27;;;;;;;3.20;3.00;;;20.90;54.30;20.80;95785.00;;;;5068772;28;20271;-84
2022/04/25 11:05:34;;;;;;;3.20;3.00;;;20.70;53.90;20.70;95772.00;;;;5067822;28;20227;-85
2022/04/25 11:08:32;;;;;;;3.50;3.30;;;20.50;54.20;20.60;95775.00;;;;5066733;28;20523;-84
2022/04/25 11:11:22;;;;;;;2.50;2.37;;;20.40;53.80;20.50;95779.00;;;;5068226;28;20277;-84
2022/04/25 11:14:18;;;;;;;3.57;3.37;;;20.30;54.80;20.50;95780.00;;;;5069970;28;20239;-84
2022/04/25 11:17:08;;;;;;;3.47;3.27;;;20.20;54.10;20.40;95783.00;;;;5067137;28;20220;-85
2022/04/25 11:19:51;;;;;;;3.43;3.23;;;20.10;54.60;20.40;95781.00;;;;5066756;28;20271;-85
2022/04/25 11:22:52;;;;;;;3.40;3.20;;;20.00;54.90;20.30;95793.00;;;;5070139;28;20192;-84
2022/04/25 11:25:44;;;;;;;3.37;3.07;;;20.00;55.00;20.20;95793.00;;;;5067849;28;20212;-85
2022/04/25 11:28:13;;;;;;;3.63;3.43;;;19.90;55.70;20.20;95791.00;;;;5067862;28;20216;-84
2022/04/25 11:30:42;;;;;;;3.53;3.33;;;19.80;55.30;20.10;95793.00;;;;5071271;28;20194;-88
2022/04/25 11:33:12;;;;;;;3.77;3.57;;;19.80;55.20;20.10;95792.00;;;;5070257;28;20285;-89
2022/04/25 11:35:42;;;;;;;3.67;3.37;;;19.70;55.30;20.00;95802.00;;;;5070129;28;20294;-88
2022/04/25 11:38:09;;;;;;;4.23;3.87;;;19.70;55.50;19.90;95802.00;;;;5068516;28;20257;-89